Terminal Aerodrome Forecast
Issued by NWS

Home | Current Version | Previous Version | Text Only | Print | Product List | Glossary On
Versions: 1 2 3 4 5 6 7 8 9 10 11 12 13 14 15 16 17 18 19 20 21 22 23 24 25 26 27 28 29 30 31 32 33 34 35 36 37 38
000
FTUS44 KTSA 241720
TAFXNA
TAF
KXNA 241720Z 2418/2518 11008KT P6SM VCSH SCT007 BKN015
      TEMPO 2418/2421 BKN007
     FM242300 13007KT P6SM VCSH OVC025
     FM250300 11005KT P6SM OVC012 PROB30 2514/2518 4SM -TSRA
      BKN008CB=

USA.gov is the U.S. government's official web portal to all federal, state and local government web resources and services.